createdAt,value
2022-09-28T00:01:00.650Z,8.02
2022-09-28T00:03:28.968Z,8.04
2022-09-28T00:06:02.430Z,8.08
2022-09-28T00:08:31.652Z,8.07
2022-09-28T00:10:59.720Z,8.10
2022-09-28T00:13:28.182Z,8.10
2022-09-28T00:16:03.970Z,8.08
2022-09-28T00:18:32.202Z,8.05
2022-09-28T00:21:04.665Z,8.10
2022-09-28T00:23:34.540Z,8.03
2022-09-28T00:26:06.418Z,8.09
2022-09-28T00:28:34.292Z,8.09
2022-09-28T00:31:02.243Z,8.09
2022-09-28T00:33:31.095Z,8.12
2022-09-28T00:35:59.163Z,8.18
2022-09-28T00:38:28.337Z,8.16
2022-09-28T00:40:57.690Z,8.77
2022-09-28T00:43:26.367Z,9.57
2022-09-28T00:46:00.242Z,9.34
2022-09-28T00:48:32.163Z,8.92
2022-09-28T00:51:02.962Z,8.74
2022-09-28T00:53:34.735Z,8.67
2022-09-28T00:56:09.187Z,8.65
2022-09-28T00:58:44.784Z,8.48
2022-09-28T01:01:13.342Z,8.49
2022-09-28T01:03:45.253Z,8.41
2022-09-28T01:06:19.064Z,8.37
2022-09-28T01:08:50.547Z,8.23
2022-09-28T01:11:20.976Z,8.13
2022-09-28T01:13:52.275Z,8.14
2022-09-28T01:16:33.727Z,8.13
2022-09-28T01:19:34.389Z,8.11
2022-09-28T01:22:21.012Z,8.08
2022-09-28T01:24:55.398Z,8.17
2022-09-28T01:27:29.216Z,8.09
2022-09-28T01:30:05.341Z,8.16
2022-09-28T01:32:48.918Z,8.12
2022-09-28T01:35:20.998Z,8.14
2022-09-28T01:37:54.824Z,8.23
2022-09-28T01:40:25.783Z,8.29
2022-09-28T01:42:59.617Z,8.29
2022-09-28T01:45:31.262Z,8.36
2022-09-28T01:48:03.723Z,8.44
2022-09-28T01:50:37.829Z,8.42
2022-09-28T01:53:11.787Z,8.55
2022-09-28T01:55:44.916Z,8.48
2022-09-28T01:58:19.203Z,8.57
2022-09-28T02:00:52.012Z,8.57
2022-09-28T02:03:25.540Z,8.52
2022-09-28T02:06:06.883Z,8.48
2022-09-28T02:08:37.400Z,8.50
2022-09-28T02:11:10.729Z,8.49
2022-09-28T02:13:43.815Z,8.58
2022-09-28T02:16:22.177Z,8.56
2022-09-28T02:18:51.955Z,8.47
2022-09-28T02:21:26.937Z,8.48
2022-09-28T02:24:00.868Z,8.57
2022-09-28T02:26:33.005Z,8.54
2022-09-28T02:29:02.302Z,8.58
2022-09-28T02:31:30.173Z,8.54
2022-09-28T02:33:58.808Z,8.38
2022-09-28T02:36:27.376Z,8.41
2022-09-28T02:38:55.649Z,8.42
2022-09-28T02:41:35.365Z,8.46
2022-09-28T02:44:16.708Z,8.52
2022-09-28T02:46:52.598Z,8.42
2022-09-28T02:49:35.934Z,8.46
2022-09-28T02:52:23.298Z,8.48
2022-09-28T02:55:20.865Z,8.47
2022-09-28T02:58:04.563Z,8.50
2022-09-28T03:00:38.745Z,8.50
2022-09-28T03:03:18.906Z,8.59
2022-09-28T03:05:52.620Z,8.53
2022-09-28T03:08:25.037Z,8.43
2022-09-28T03:10:59.846Z,8.53
2022-09-28T03:13:29.002Z,8.58
2022-09-28T03:16:10.288Z,8.62
2022-09-28T03:18:38.502Z,8.62
2022-09-28T03:21:06.547Z,8.61
2022-09-28T03:23:34.447Z,8.58
2022-09-28T03:26:03.093Z,8.38
2022-09-28T03:28:31.581Z,8.32
2022-09-28T03:30:59.329Z,8.19
2022-09-28T03:33:28.628Z,8.26
2022-09-28T03:35:56.429Z,8.31
2022-09-28T03:38:24.775Z,8.26
2022-09-28T03:40:56.853Z,8.21
2022-09-28T03:43:25.786Z,8.14
2022-09-28T03:45:56.843Z,8.19
2022-09-28T03:48:31.234Z,8.21
2022-09-28T03:51:03.076Z,8.12
2022-09-28T03:53:30.889Z,8.20
2022-09-28T03:56:04.595Z,8.24
2022-09-28T03:58:33.511Z,8.17
2022-09-28T04:01:06.234Z,8.12
2022-09-28T04:03:34.580Z,8.20
2022-09-28T04:06:03.787Z,8.13
2022-09-28T04:08:31.839Z,8.15
2022-09-28T04:11:00.672Z,8.15
2022-09-28T04:13:30.469Z,8.25
2022-09-28T04:16:01.516Z,8.18
2022-09-28T04:18:35.184Z,8.26
2022-09-28T04:21:09.254Z,8.23
2022-09-28T04:23:50.449Z,8.16
2022-09-28T04:26:20.481Z,8.17
2022-09-28T04:29:07.190Z,8.23
2022-09-28T04:31:40.040Z,8.17
2022-09-28T04:34:08.032Z,8.13
2022-09-28T04:36:37.573Z,8.13
2022-09-28T04:39:05.416Z,8.14
2022-09-28T04:41:34.090Z,8.10
2022-09-28T04:44:02.605Z,8.08
2022-09-28T04:46:30.415Z,8.16
2022-09-28T04:49:26.997Z,8.21
2022-09-28T04:51:59.024Z,8.23
2022-09-28T04:54:26.817Z,8.26
2022-09-28T04:56:55.382Z,8.20
2022-09-28T04:59:23.304Z,8.08
2022-09-28T05:01:51.127Z,8.12
2022-09-28T05:04:37.399Z,8.17
2022-09-28T05:07:27.859Z,8.11
2022-09-28T05:09:56.186Z,8.06
2022-09-28T05:12:24.263Z,8.10
2022-09-28T05:14:52.132Z,8.12
2022-09-28T05:17:20.093Z,8.07
2022-09-28T05:19:59.106Z,8.00
2022-09-28T05:22:28.575Z,8.06
2022-09-28T05:24:58.257Z,7.90
2022-09-28T05:27:26.649Z,7.91
2022-09-28T05:30:18.915Z,7.80
2022-09-28T05:33:15.479Z,7.81
2022-09-28T05:35:51.049Z,7.85
2022-09-28T05:38:22.555Z,7.77
2022-09-28T05:40:50.550Z,7.86
2022-09-28T05:43:18.873Z,7.82
2022-09-28T05:45:47.361Z,7.73
2022-09-28T05:48:18.404Z,7.76
2022-09-28T05:50:51.474Z,7.72
2022-09-28T05:53:19.431Z,7.73
2022-09-28T05:55:49.289Z,7.77
2022-09-28T05:58:18.186Z,7.71
2022-09-28T06:00:46.126Z,7.74
2022-09-28T06:03:19.604Z,7.77
2022-09-28T06:05:47.646Z,7.74
2022-09-28T06:08:15.660Z,7.70
2022-09-28T06:10:48.457Z,7.67
2022-09-28T06:13:16.635Z,7.65
2022-09-28T06:15:47.622Z,7.77
2022-09-28T06:18:15.996Z,7.77
2022-09-28T06:21:05.860Z,7.71
2022-09-28T06:23:40.598Z,7.76
2022-09-28T06:26:10.668Z,7.70
2022-09-28T06:28:38.527Z,7.76
2022-09-28T06:31:07.477Z,7.69
2022-09-28T06:33:43.117Z,7.78
2022-09-28T06:36:11.061Z,7.65
2022-09-28T06:38:39.178Z,7.63
2022-09-28T06:41:07.333Z,7.69
2022-09-28T06:43:36.706Z,7.75
2022-09-28T06:46:14.191Z,7.74
2022-09-28T06:48:51.553Z,7.84
2022-09-28T06:51:39.292Z,8.15
2022-09-28T06:54:20.024Z,8.28
2022-09-28T06:56:58.665Z,8.45
2022-09-28T06:59:27.915Z,8.55
2022-09-28T07:01:55.804Z,8.60
2022-09-28T07:04:42.966Z,8.46
2022-09-28T07:07:29.513Z,8.44
2022-09-28T07:10:17.906Z,8.60
2022-09-28T07:13:07.371Z,8.53
2022-09-28T07:15:47.625Z,8.57
2022-09-28T07:18:17.782Z,8.69
2022-09-28T07:20:53.746Z,8.71
2022-09-28T07:23:22.416Z,8.67
2022-09-28T07:26:11.514Z,8.97
2022-09-28T07:28:55.902Z,8.83
2022-09-28T07:31:51.209Z,8.68
2022-09-28T07:34:41.221Z,8.61
2022-09-28T07:37:26.566Z,8.58
2022-09-28T07:40:23.950Z,8.68
2022-09-28T07:42:52.135Z,8.88
2022-09-28T07:45:24.683Z,8.95
2022-09-28T07:47:56.266Z,9.02
2022-09-28T07:50:42.742Z,8.99
2022-09-28T07:53:17.053Z,9.00
2022-09-28T07:56:05.725Z,9.01
2022-09-28T07:59:02.858Z,9.18
2022-09-28T08:01:49.919Z,9.05
2022-09-28T08:04:20.510Z,8.83
2022-09-28T08:06:48.381Z,8.83
2022-09-28T08:09:16.532Z,8.79
2022-09-28T08:12:04.099Z,8.77
2022-09-28T08:14:41.670Z,8.80
2022-09-28T08:17:12.448Z,8.77
2022-09-28T08:20:05.844Z,8.78
2022-09-28T08:22:33.762Z,8.78
2022-09-28T08:25:02.201Z,8.84
2022-09-28T08:27:30.598Z,8.91
2022-09-28T08:29:58.387Z,8.92
2022-09-28T08:32:47.764Z,8.95
2022-09-28T08:35:35.355Z,9.01
2022-09-28T08:38:15.269Z,9.09
2022-09-28T08:41:17.578Z,9.09
2022-09-28T08:44:23.717Z,9.31
2022-09-28T08:47:31.723Z,9.22
2022-09-28T08:50:21.560Z,9.38
2022-09-28T08:53:18.448Z,9.47
2022-09-28T08:56:16.058Z,9.45
2022-09-28T08:58:48.175Z,9.48
2022-09-28T09:01:18.947Z,9.35
2022-09-28T09:03:55.813Z,9.26
2022-09-28T09:06:49.244Z,9.34
2022-09-28T09:09:41.924Z,9.36
2022-09-28T09:12:19.264Z,9.38
2022-09-28T09:15:20.512Z,9.30
2022-09-28T09:17:59.514Z,8.38
2022-09-28T09:20:43.971Z,8.04
2022-09-28T09:23:25.675Z,8.04
2022-09-28T09:26:00.221Z,7.70
2022-09-28T09:28:42.026Z,7.65
2022-09-28T09:31:27.142Z,7.65
2022-09-28T09:34:13.675Z,7.66
2022-09-28T09:37:07.449Z,7.69
2022-09-28T09:40:05.084Z,7.77
2022-09-28T09:43:10.460Z,7.77
2022-09-28T09:46:03.094Z,7.95
2022-09-28T09:48:39.381Z,7.97
2022-09-28T09:51:18.022Z,7.90
2022-09-28T09:53:52.264Z,8.06
2022-09-28T09:56:27.149Z,7.97
2022-09-28T09:59:12.162Z,7.82
2022-09-28T10:01:58.574Z,7.81
2022-09-28T10:04:46.692Z,7.79
2022-09-28T10:07:25.378Z,8.00
2022-09-28T10:09:58.266Z,8.06
2022-09-28T10:12:44.577Z,8.10
2022-09-28T10:15:20.112Z,8.14
2022-09-28T10:18:05.926Z,8.19
2022-09-28T10:21:06.456Z,8.25
2022-09-28T10:24:02.653Z,8.34
2022-09-28T10:26:36.545Z,8.24
2022-09-28T10:29:13.145Z,8.23
2022-09-28T10:31:44.116Z,8.30
2022-09-28T10:34:27.140Z,8.43
2022-09-28T10:37:00.668Z,8.39
2022-09-28T10:39:37.423Z,8.23
2022-09-28T10:42:09.035Z,8.30
2022-09-28T10:44:51.573Z,8.55
2022-09-28T10:47:45.624Z,8.66
2022-09-28T10:50:22.241Z,8.48
2022-09-28T10:52:52.747Z,8.52
2022-09-28T10:55:40.576Z,8.68
2022-09-28T10:58:29.776Z,8.58
2022-09-28T11:01:03.935Z,8.50
2022-09-28T11:03:34.021Z,8.65
2022-09-28T11:06:08.873Z,9.10
2022-09-28T11:08:42.889Z,9.39
2022-09-28T11:11:19.365Z,9.28
2022-09-28T11:13:53.452Z,9.06
2022-09-28T11:16:30.331Z,8.84
2022-09-28T11:19:06.133Z,8.96
2022-09-28T11:21:43.414Z,9.06
2022-09-28T11:24:21.024Z,9.07
2022-09-28T11:26:53.588Z,8.96
2022-09-28T11:29:33.545Z,8.89
2022-09-28T11:32:21.929Z,8.92
2022-09-28T11:35:19.610Z,9.12
2022-09-28T11:38:02.284Z,9.33
2022-09-28T11:41:18.846Z,9.17
2022-09-28T11:44:13.023Z,9.49
2022-09-28T11:46:49.943Z,9.73
2022-09-28T11:49:34.322Z,9.70
2022-09-28T11:52:09.232Z,9.71
2022-09-28T11:54:43.711Z,9.61
2022-09-28T11:57:17.845Z,9.60
2022-09-28T11:59:54.867Z,9.44
2022-09-28T12:02:27.571Z,9.60
2022-09-28T12:05:14.919Z,9.74
2022-09-28T12:07:52.090Z,9.85
2022-09-28T12:10:45.532Z,10.16
2022-09-28T12:13:18.901Z,10.18
2022-09-28T12:18:45.647Z,9.71
2022-09-28T12:21:28.931Z,9.68
2022-09-28T12:24:07.674Z,9.70
2022-09-28T12:26:43.140Z,9.45
2022-09-28T12:29:15.357Z,9.61
2022-09-28T12:31:56.934Z,9.83
2022-09-28T12:34:24.868Z,9.86
2022-09-28T12:37:10.041Z,9.73
2022-09-28T12:39:58.458Z,9.55
2022-09-28T12:42:44.056Z,9.61
2022-09-28T12:45:38.902Z,9.57
2022-09-28T12:49:03.029Z,9.43
2022-09-28T12:51:48.979Z,9.38
2022-09-28T12:54:34.795Z,9.62
2022-09-28T12:57:20.624Z,9.69
2022-09-28T13:00:02.387Z,9.66
2022-09-28T13:02:57.086Z,9.57
2022-09-28T13:05:44.265Z,9.44
2022-09-28T13:08:18.256Z,9.36
2022-09-28T13:10:56.195Z,9.00
2022-09-28T13:13:38.940Z,8.80
2022-09-28T13:16:17.475Z,8.74
2022-09-28T13:18:51.316Z,8.57
2022-09-28T13:21:28.426Z,8.45
2022-09-28T13:24:14.489Z,8.34
2022-09-28T13:26:49.011Z,8.25
2022-09-28T13:29:20.702Z,8.20
2022-09-28T13:31:51.833Z,8.14
2022-09-28T13:34:22.524Z,8.14
2022-09-28T13:37:20.887Z,8.10
2022-09-28T13:39:52.216Z,8.22
2022-09-28T13:42:41.627Z,8.35
2022-09-28T13:45:56.662Z,8.30
2022-09-28T13:48:38.350Z,8.42
2022-09-28T13:51:13.973Z,8.33
2022-09-28T13:54:21.836Z,9.07
2022-09-28T13:56:57.789Z,9.26
2022-09-28T13:59:28.053Z,8.95
2022-09-28T14:02:06.912Z,8.91
2022-09-28T14:04:57.918Z,8.85
2022-09-28T14:10:19.942Z,8.70
2022-09-28T14:12:50.218Z,8.80
2022-09-28T14:15:44.991Z,8.87
2022-09-28T14:18:24.609Z,8.75
2022-09-28T14:21:08.161Z,8.63
2022-09-28T14:23:48.242Z,8.62
2022-09-28T14:26:43.001Z,8.55
2022-09-28T14:29:28.568Z,8.54
2022-09-28T14:31:58.207Z,8.70
2022-09-28T14:34:38.444Z,8.54
2022-09-28T14:37:39.354Z,8.62
2022-09-28T14:40:35.067Z,8.72
2022-09-28T14:43:25.933Z,8.69
2022-09-28T14:46:33.091Z,8.61
2022-09-28T14:49:02.909Z,8.67
2022-09-28T14:52:02.891Z,8.66
2022-09-28T14:54:42.648Z,8.68
2022-09-28T14:57:18.687Z,8.65
2022-09-28T14:59:47.733Z,8.58
2022-09-28T15:02:21.133Z,8.56
2022-09-28T15:04:53.613Z,8.63
2022-09-28T15:07:24.617Z,8.65
2022-09-28T15:09:55.147Z,8.63
2022-09-28T15:12:27.033Z,8.62
2022-09-28T15:14:57.250Z,8.79
2022-09-28T15:17:28.200Z,8.51
2022-09-28T15:20:13.491Z,8.60
2022-09-28T15:22:47.545Z,8.64
2022-09-28T15:25:20.888Z,8.62
2022-09-28T15:27:54.066Z,8.62
2022-09-28T15:30:25.957Z,8.60
2022-09-28T15:32:56.651Z,8.61
2022-09-28T15:35:26.234Z,8.57
2022-09-28T15:37:55.864Z,8.62
2022-09-28T15:40:32.703Z,8.70
2022-09-28T15:43:02.460Z,8.71
2022-09-28T15:45:36.187Z,8.49
2022-09-28T15:48:19.801Z,8.58
2022-09-28T15:51:01.890Z,8.54
2022-09-28T15:53:31.296Z,8.60
2022-09-28T15:56:10.011Z,8.51
2022-09-28T15:58:39.300Z,8.58
2022-09-28T16:01:38.278Z,8.36
2022-09-28T16:04:37.636Z,8.24
2022-09-28T16:07:18.210Z,8.19
2022-09-28T16:09:56.499Z,8.14
2022-09-28T16:12:31.257Z,8.07
2022-09-28T16:15:03.838Z,8.04
2022-09-28T16:17:34.020Z,7.99
2022-09-28T16:20:04.458Z,7.97
2022-09-28T16:22:33.548Z,8.04
2022-09-28T16:25:02.260Z,8.04
2022-09-28T16:27:41.345Z,7.91
2022-09-28T16:30:21.682Z,7.81
2022-09-28T16:32:52.658Z,7.77
2022-09-28T16:35:25.424Z,7.81
2022-09-28T16:38:05.588Z,7.81
2022-09-28T16:40:34.328Z,7.82
2022-09-28T16:43:06.682Z,7.79
2022-09-28T16:45:36.935Z,7.86
2022-09-28T16:48:05.794Z,7.74
2022-09-28T16:50:33.597Z,7.91
2022-09-28T16:53:30.045Z,7.87
2022-09-28T16:55:59.401Z,7.87
2022-09-28T16:58:28.881Z,7.88
2022-09-28T17:00:56.726Z,7.94
2022-09-28T17:03:25.759Z,7.92
2022-09-28T17:05:55.167Z,7.88
2022-09-28T17:08:25.090Z,7.94
2022-09-28T17:11:15.924Z,7.91
2022-09-28T17:13:45.141Z,7.75
2022-09-28T17:16:15.258Z,7.70
2022-09-28T17:18:43.106Z,7.67
2022-09-28T17:21:13.865Z,7.73
2022-09-28T17:23:41.704Z,7.79
2022-09-28T17:26:17.865Z,7.86
2022-09-28T17:28:47.457Z,7.82
2022-09-28T17:31:17.076Z,7.85
2022-09-28T17:33:46.181Z,7.83
2022-09-28T17:36:16.217Z,7.80
2022-09-28T17:38:44.682Z,7.79
2022-09-28T17:41:16.826Z,7.79
2022-09-28T17:43:48.804Z,7.78
2022-09-28T17:46:27.146Z,7.72
2022-09-28T17:48:57.622Z,7.81
2022-09-28T17:51:25.434Z,7.74
2022-09-28T17:53:54.358Z,7.72
2022-09-28T17:56:22.307Z,7.71
2022-09-28T17:58:52.516Z,7.73
2022-09-28T18:01:20.658Z,7.69
2022-09-28T18:03:48.888Z,7.62
2022-09-28T18:06:22.230Z,7.74
2022-09-28T18:08:50.260Z,7.69
2022-09-28T18:11:18.329Z,7.64
2022-09-28T18:13:46.914Z,7.69
2022-09-28T18:16:16.669Z,7.60
2022-09-28T18:18:44.649Z,7.74
2022-09-28T18:21:12.469Z,7.69
2022-09-28T18:23:40.637Z,7.73
2022-09-28T18:26:12.907Z,7.72
2022-09-28T18:28:40.915Z,7.71
2022-09-28T18:31:09.614Z,7.69
2022-09-28T18:33:39.379Z,7.63
2022-09-28T18:36:08.561Z,7.55
2022-09-28T18:38:36.820Z,7.42
2022-09-28T18:41:10.054Z,7.37
2022-09-28T18:43:38.136Z,7.26
2022-09-28T18:46:10.525Z,7.29
2022-09-28T18:48:40.485Z,7.30
2022-09-28T18:51:10.444Z,7.24
2022-09-28T18:53:38.550Z,7.22
2022-09-28T18:56:08.018Z,7.19
2022-09-28T18:58:36.699Z,7.27
2022-09-28T19:01:29.050Z,7.22
2022-09-28T19:03:59.955Z,7.30
2022-09-28T19:06:27.785Z,7.24
2022-09-28T19:08:56.513Z,7.28
2022-09-28T19:11:25.020Z,7.17
2022-09-28T19:13:55.071Z,7.27
2022-09-28T19:16:25.303Z,7.23
2022-09-28T19:18:53.874Z,7.23
2022-09-28T19:21:23.290Z,7.22
2022-09-28T19:23:52.011Z,7.25
2022-09-28T19:26:22.880Z,7.22
2022-09-28T19:28:50.875Z,7.18
2022-09-28T19:31:19.192Z,7.19
2022-09-28T19:33:48.068Z,7.19
2022-09-28T19:36:17.688Z,7.21
2022-09-28T19:38:47.264Z,7.18
2022-09-28T19:41:39.538Z,7.22
2022-09-28T19:44:13.345Z,7.18
2022-09-28T19:46:41.659Z,7.30
2022-09-28T19:49:11.605Z,7.26
2022-09-28T19:51:51.550Z,7.23
2022-09-28T19:54:36.162Z,7.26
2022-09-28T19:57:07.414Z,7.23
2022-09-28T19:59:35.633Z,7.27
2022-09-28T20:02:03.610Z,7.25
2022-09-28T20:04:31.485Z,7.31
2022-09-28T20:06:59.271Z,7.27
2022-09-28T20:09:27.029Z,7.26
2022-09-28T20:11:56.984Z,7.30
2022-09-28T20:14:25.998Z,7.30
2022-09-28T20:16:54.437Z,7.30
2022-09-28T20:19:23.246Z,7.30
2022-09-28T20:21:51.558Z,7.30
2022-09-28T20:24:19.322Z,7.32
2022-09-28T20:26:49.479Z,7.28
2022-09-28T20:29:18.752Z,7.36
2022-09-28T20:31:46.640Z,7.38
2022-09-28T20:34:14.474Z,7.33
2022-09-28T20:36:44.514Z,7.33
2022-09-28T20:39:13.415Z,7.38
2022-09-28T20:41:41.241Z,7.34
2022-09-28T20:44:09.946Z,7.37
2022-09-28T20:46:39.218Z,7.37
2022-09-28T20:49:08.144Z,7.38
2022-09-28T20:51:35.909Z,7.38
2022-09-28T20:54:03.688Z,7.38
2022-09-28T20:56:37.518Z,7.41
2022-09-28T20:59:06.267Z,7.48
2022-09-28T21:01:34.173Z,7.40
2022-09-28T21:04:05.426Z,7.37
2022-09-28T21:06:34.789Z,7.36
2022-09-28T21:09:03.142Z,7.34
2022-09-28T21:11:31.260Z,7.31
2022-09-28T21:14:01.042Z,7.32
2022-09-28T21:16:30.602Z,7.27
2022-09-28T21:18:59.198Z,7.40
2022-09-28T21:21:28.736Z,7.33
2022-09-28T21:23:57.707Z,7.36
2022-09-28T21:26:27.403Z,7.36
2022-09-28T21:28:56.488Z,7.30
2022-09-28T21:31:28.842Z,7.34
2022-09-28T21:33:57.345Z,7.39
2022-09-28T21:36:25.798Z,7.33
2022-09-28T21:38:55.495Z,7.30
2022-09-28T21:41:23.627Z,7.33
2022-09-28T21:43:51.820Z,7.35
2022-09-28T21:46:19.681Z,7.34
2022-09-28T21:48:47.565Z,7.35
2022-09-28T21:51:15.823Z,7.37
2022-09-28T21:53:43.641Z,7.37
2022-09-28T21:56:13.848Z,7.36
2022-09-28T21:58:41.653Z,7.34
2022-09-28T22:01:12.083Z,7.31
2022-09-28T22:03:40.235Z,7.26
2022-09-28T22:06:08.880Z,7.27
2022-09-28T22:08:37.619Z,7.24
2022-09-28T22:11:07.781Z,7.29
2022-09-28T22:13:40.220Z,7.16
2022-09-28T22:16:08.577Z,7.10
2022-09-28T22:18:36.496Z,7.11
2022-09-28T22:21:07.456Z,7.08
2022-09-28T22:23:36.344Z,9.07
2022-09-28T22:26:06.323Z,9.54
2022-09-28T22:28:35.832Z,9.33
2022-09-28T22:31:03.884Z,8.63
2022-09-28T22:33:31.717Z,8.30
2022-09-28T22:35:59.441Z,8.08
2022-09-28T22:38:28.057Z,7.89
2022-09-28T22:40:57.619Z,7.78
2022-09-28T22:43:26.985Z,7.93
2022-09-28T22:46:04.014Z,7.85
2022-09-28T22:48:34.381Z,7.88
2022-09-28T22:51:03.084Z,7.95
2022-09-28T22:53:31.118Z,7.86
2022-09-28T22:56:01.419Z,7.85
2022-09-28T22:58:29.163Z,7.94
2022-09-28T23:00:57.823Z,7.90
2022-09-28T23:03:27.018Z,7.98
2022-09-28T23:05:55.277Z,8.08
2022-09-28T23:08:23.709Z,8.06
2022-09-28T23:10:52.355Z,7.98
2022-09-28T23:13:20.524Z,7.86
2022-09-28T23:15:56.090Z,7.85
2022-09-28T23:18:23.903Z,7.86
2022-09-28T23:20:57.396Z,7.95
2022-09-28T23:23:25.242Z,7.93
2022-09-28T23:25:53.557Z,7.97
2022-09-28T23:28:23.159Z,7.97
2022-09-28T23:30:51.899Z,7.95
2022-09-28T23:33:21.359Z,7.90
2022-09-28T23:35:49.379Z,7.84
2022-09-28T23:38:19.291Z,7.83
2022-09-28T23:40:47.863Z,7.81
2022-09-28T23:43:15.921Z,7.80
2022-09-28T23:45:43.865Z,7.85
2022-09-28T23:48:11.696Z,7.80
2022-09-28T23:50:41.740Z,7.76
2022-09-28T23:53:10.664Z,7.82
2022-09-28T23:55:39.863Z,7.85
2022-09-28T23:58:07.757Z,7.79
